Time;durP1;ratioP1;P1;durP2;ratioP2;P2;SDS_P1;SDS_P2;PMS_P1;PMS_P2;Temp;Humidity;BMP_temperature;BMP_pressure;BME280_temperature;BME280_humidity;BME280_pressure;Samples;Min_cycle;Max_cycle;Signal;HPM_P1;HPM_P2
2021/03/14 17:39:20;;;;;;;;;;;16.50;55.70;;;;;;5060291;27;19921;-70
2021/03/14 17:41:50;;;;;;;;;;;19.10;60.00;;;;;;5027057;28;20020;-68
2021/03/14 17:44:16;;;;;;;;;;;19.20;59.50;;;;;;5034998;28;76791;-69
2021/03/14 17:46:41;;;;;;;;;;;19.30;59.20;;;;;;5056956;28;19989;-79
2021/03/14 17:49:07;;;;;;;;;;;19.50;58.90;;;;;;5048753;28;19967;-69
2021/03/14 17:51:32;;;;;;;;;;;19.60;58.50;;;;;;5042031;28;19960;-71
2021/03/14 17:53:58;;;;;;;;;;;19.70;58.20;;;;;;5046995;28;19929;-64
2021/03/14 17:56:24;;;;;;;;;;;19.80;57.70;;;;;;5038980;28;19928;-67
2021/03/14 17:58:49;;;;;;;;;;;19.90;57.20;;;;;;5047351;28;19925;-72
2021/03/14 18:01:16;;;;;;;;;;;20.00;57.30;;;;;;5057128;28;19931;-67
2021/03/14 18:03:41;;;;;;;;;;;20.00;57.10;;;;;;5067860;28;19924;-66
2021/03/14 18:06:07;;;;;;;;;;;20.10;57.40;;;;;;5047552;28;20023;-76
2021/03/14 18:08:32;;;;;;;;;;;20.10;56.80;;;;;;5047107;28;20012;-72
2021/03/14 18:10:58;;;;;;;;;;;20.10;56.70;;;;;;5047102;28;19999;-66
2021/03/14 18:13:23;;;;;;;;;;;20.10;56.50;;;;;;5047551;28;20451;-64
2021/03/14 18:15:49;;;;;;;;;;;20.20;56.60;;;;;;5048645;28;19925;-66
2021/03/14 18:18:14;;;;;;;;;;;20.20;57.00;;;;;;5041027;28;19926;-69
2021/03/14 18:20:40;;;;;;;;;;;20.20;57.70;;;;;;5027732;28;19948;-65
2021/03/14 18:23:05;;;;;;;;;;;20.30;58.10;;;;;;5028422;28;19929;-71
2021/03/14 18:25:31;;;;;;;;;;;20.30;58.20;;;;;;5028584;28;20040;-79
2021/03/14 18:27:56;;;;;;;;;;;20.30;58.20;;;;;;5027191;28;19976;-71
2021/03/14 18:30:23;;;;;;;;;;;20.30;58.20;;;;;;5026755;28;20050;-68
2021/03/14 18:32:48;;;;;;;;;;;20.40;58.30;;;;;;5028506;28;19956;-69
2021/03/14 18:35:14;;;;;;;;;;;20.40;58.30;;;;;;5027353;28;19961;-73
2021/03/14 18:37:40;;;;;;;;;;;20.40;58.40;;;;;;5030418;28;19925;-73
2021/03/14 18:40:06;;;;;;;;;;;20.40;58.50;;;;;;5048258;28;19990;-69
2021/03/14 18:42:32;;;;;;;;;;;20.50;58.20;;;;;;5047898;28;19932;-67
2021/03/14 18:44:57;;;;;;;;;;;20.50;58.10;;;;;;5047643;28;20805;-66
2021/03/14 18:47:23;;;;;;;;;;;20.50;58.10;;;;;;5048873;28;20020;-66
2021/03/14 18:49:48;;;;;;;;;;;20.50;58.00;;;;;;5036956;28;20015;-65
2021/03/14 18:52:14;;;;;;;;;;;20.50;58.10;;;;;;5034649;28;20324;-68
2021/03/14 18:54:40;;;;;;;;;;;20.60;58.10;;;;;;5034685;28;19948;-67
2021/03/14 18:57:05;;;;;;;;;;;20.60;57.90;;;;;;5032802;28;20392;-69
2021/03/14 18:59:31;;;;;;;;;;;20.60;57.80;;;;;;5035001;28;20012;-67
2021/03/14 19:01:56;;;;;;;;;;;20.60;58.00;;;;;;5032959;28;19925;-67
2021/03/14 19:04:22;;;;;;;;;;;20.60;57.80;;;;;;5034448;28;19929;-68
2021/03/14 19:06:48;;;;;;;;;;;20.60;57.80;;;;;;5033948;28;19925;-64
2021/03/14 19:09:14;;;;;;;;;;;20.60;58.00;;;;;;5033135;28;19975;-64
2021/03/14 19:11:39;;;;;;;;;;;20.60;57.90;;;;;;5033406;28;19965;-63
2021/03/14 19:14:05;;;;;;;;;;;20.60;58.40;;;;;;5033832;28;19925;-64
2021/03/14 19:16:31;;;;;;;;;;;20.60;56.30;;;;;;5033903;28;19932;-65
2021/03/14 19:18:56;;;;;;;;;;;20.50;55.80;;;;;;5033586;28;20299;-64
2021/03/14 19:21:22;;;;;;;;;;;20.40;54.50;;;;;;5034835;28;20003;-63
2021/03/14 19:23:47;;;;;;;;;;;20.30;54.60;;;;;;5033182;28;20303;-64
2021/03/14 19:26:13;;;;;;;;;;;20.30;55.00;;;;;;5034173;28;19933;-64
2021/03/14 19:28:39;;;;;;;;;;;20.20;55.60;;;;;;5033890;28;19936;-66
2021/03/14 19:31:05;;;;;;;;;;;20.30;55.90;;;;;;5033357;28;20020;-63
2021/03/14 19:33:30;;;;;;;;;;;20.20;55.80;;;;;;5034171;28;20020;-67
2021/03/14 19:35:58;;;;;;;;;;;20.20;56.20;;;;;;5050326;28;19933;-62
2021/03/14 19:38:26;;;;;;;;;;;20.20;55.80;;;;;;5053255;28;19924;-62
2021/03/14 19:40:51;;;;;;;;;;;20.20;55.90;;;;;;5053132;28;19925;-62
2021/03/14 19:43:17;;;;;;;;;;;20.20;56.60;;;;;;5054122;28;19931;-62
2021/03/14 19:45:43;;;;;;;;;;;20.20;56.00;;;;;;5053094;28;19925;-62
2021/03/14 19:48:09;;;;;;;;;;;20.20;56.10;;;;;;5053657;28;19933;-62
2021/03/14 19:50:34;;;;;;;;;;;20.20;56.10;;;;;;5053749;28;19971;-63
2021/03/14 19:53:00;;;;;;;;;;;20.20;56.10;;;;;;5052136;28;19925;-63
2021/03/14 19:55:25;;;;;;;;;;;20.20;56.30;;;;;;5053708;28;20364;-62
2021/03/14 19:57:51;;;;;;;;;;;20.30;56.40;;;;;;5053030;28;19925;-61
2021/03/14 20:00:17;;;;;;;;;;;20.20;56.30;;;;;;5052322;28;20015;-62
2021/03/14 20:02:42;;;;;;;;;;;20.20;56.30;;;;;;5052832;28;19966;-63
2021/03/14 20:05:08;;;;;;;;;;;20.20;56.40;;;;;;5051422;28;20007;-62
2021/03/14 20:07:34;;;;;;;;;;;20.30;56.50;;;;;;5053238;28;20283;-62
2021/03/14 20:09:59;;;;;;;;;;;20.30;56.40;;;;;;5052780;28;19925;-66
2021/03/14 20:12:31;;;;;;;;;;;20.30;56.40;;;;;;5053226;28;19963;-66
2021/03/14 20:14:56;;;;;;;;;;;20.30;56.40;;;;;;5053330;28;19948;-65
2021/03/14 20:17:22;;;;;;;;;;;20.30;56.50;;;;;;5052823;28;19944;-67
2021/03/14 20:19:47;;;;;;;;;;;20.30;56.40;;;;;;5052121;28;19970;-66
2021/03/14 20:22:13;;;;;;;;;;;20.30;56.30;;;;;;5052828;28;19966;-65
2021/03/14 20:24:38;;;;;;;;;;;20.30;56.40;;;;;;5052900;28;19925;-65
2021/03/14 20:27:04;;;;;;;;;;;20.30;56.50;;;;;;5052145;28;19932;-72
2021/03/14 20:29:30;;;;;;;;;;;20.40;56.50;;;;;;5053157;28;19920;-67
2021/03/14 20:31:57;;;;;;;;;;;20.30;56.40;;;;;;5052551;28;19931;-67
2021/03/14 20:34:23;;;;;;;;;;;20.40;56.40;;;;;;5052235;28;19943;-70
2021/03/14 20:36:48;;;;;;;;;;;20.40;56.50;;;;;;5052702;28;19925;-63
2021/03/14 20:39:14;;;;;;;;;;;20.40;56.40;;;;;;5052311;28;19925;-63
2021/03/14 20:41:39;;;;;;;;;;;20.30;56.40;;;;;;5052267;28;19932;-63
2021/03/14 20:44:08;;;;;;;;;;;20.30;56.30;;;;;;5041912;28;20004;-64
2021/03/14 20:46:33;;;;;;;;;;;20.30;56.30;;;;;;5050620;28;19933;-64
2021/03/14 20:48:59;;;;;;;;;;;20.30;56.30;;;;;;5051701;28;19925;-64
2021/03/14 20:51:24;;;;;;;;;;;20.30;56.30;;;;;;5052632;28;19925;-64
2021/03/14 20:53:50;;;;;;;;;;;20.30;56.20;;;;;;5052086;28;19932;-65
2021/03/14 20:56:16;;;;;;;;;;;20.30;56.30;;;;;;5052045;28;19925;-62
2021/03/14 20:58:41;;;;;;;;;;;20.30;56.40;;;;;;5052476;28;20391;-63
2021/03/14 21:01:07;;;;;;;;;;;20.30;56.20;;;;;;5052255;28;20387;-64
2021/03/14 21:03:32;;;;;;;;;;;20.30;56.30;;;;;;5051608;28;19928;-64
2021/03/14 21:05:58;;;;;;;;;;;20.30;56.40;;;;;;5051914;28;19948;-64
2021/03/14 21:08:23;;;;;;;;;;;20.30;56.20;;;;;;5052400;28;19932;-63
2021/03/14 21:10:49;;;;;;;;;;;20.30;56.10;;;;;;5051266;28;19972;-68
2021/03/14 21:13:15;;;;;;;;;;;20.20;56.10;;;;;;5052010;28;19925;-64
2021/03/14 21:15:40;;;;;;;;;;;20.20;55.90;;;;;;5051327;28;20359;-64
2021/03/14 21:18:06;;;;;;;;;;;20.20;56.10;;;;;;5051970;28;19972;-65
